Birkbeck, Illinois
Current Conditions -  °F | °C
As of 3:35 AM on Sunday 23 Nov 2014 (Local Time) from KAAA Reporting Station
Clear Clear  
Wind Chill: 50°   Ceiling: Unl
Heat Index: 50°   Visibility: 10mi
Dew Point: 44°   Wind: 9mph
Humidity: 78%   Direction: 180°S
Pressure: 29.77"   Gusts: NA
Location:  40.143°N, 88.9637°W
Report Text: KAAA 230935Z AUTO 18008KT 10SM CLR 10/07 A2977 RMK AO2 T01020065
Loading
Personal Weather Stations






























Interactive Weather Map New forecast layout! Learn more

10-Day Weather Forecast

Advertisements
Track Severe Weather on mobile